Time;durP1;ratioP1;P1;durP2;ratioP2;P2;SDS_P1;SDS_P2;PMS_P1;PMS_P2;Temp;Humidity;BMP_temperature;BMP_pressure;BME280_temperature;BME280_humidity;BME280_pressure;Samples;Min_cycle;Max_cycle;Signal;HPM_P1;HPM_P2
2022/06/03 00:01:35;;;;;;;5.25;3.80;;;;;;;;;;5013653;28;20030;-60
2022/06/03 00:04:09;;;;;;;4.45;3.47;;;;;;;;;;5013357;28;20485;-50
2022/06/03 00:07:04;;;;;;;3.88;3.40;;;;;;;;;;5013295;28;20060;-56
2022/06/03 00:10:03;;;;;;;6.53;4.20;;;;;;;;;;5013618;28;20072;-60
2022/06/03 00:12:38;;;;;;;6.93;4.05;;;;;;;;;;5013095;28;20079;-59
2022/06/03 00:15:14;;;;;;;6.00;3.83;;;;;;;;;;5012882;28;20485;-40
2022/06/03 00:17:39;;;;;;;7.03;4.40;;;;;;;;;;5011321;28;20026;-51
2022/06/03 00:20:13;;;;;;;6.38;4.18;;;;;;;;;;5012898;28;20071;-49
2022/06/03 00:23:02;;;;;;;5.68;4.18;;;;;;;;;;5012705;28;20018;-56
2022/06/03 00:25:51;;;;;;;5.15;4.10;;;;;;;;;;5012137;28;20022;-60
2022/06/03 00:28:20;;;;;;;5.05;3.95;;;;;;;;;;5013083;28;20413;-52
2022/06/03 00:31:21;;;;;;;5.60;4.13;;;;;;;;;;5012779;28;20096;-54
2022/06/03 00:34:06;;;;;;;6.35;3.90;;;;;;;;;;5001953;28;20066;-50
2022/06/03 00:37:00;;;;;;;6.25;4.40;;;;;;;;;;5012711;28;20068;-39
2022/06/03 00:39:34;;;;;;;6.93;4.30;;;;;;;;;;5012684;28;20498;-59
2022/06/03 00:42:21;;;;;;;5.90;4.50;;;;;;;;;;5012771;28;20072;-55
2022/06/03 00:45:23;;;;;;;11.32;4.72;;;;;;;;;;5012668;28;20080;-60
2022/06/03 00:48:01;;;;;;;5.07;4.03;;;;;;;;;;5012604;28;20049;-44
2022/06/03 00:50:55;;;;;;;6.22;4.20;;;;;;;;;;5012921;28;20042;-60
2022/06/03 00:54:10;;;;;;;7.07;4.30;;;;;;;;;;5012324;28;20048;-44
2022/06/03 00:56:48;;;;;;;6.10;4.53;;;;;;;;;;5002403;28;20034;-44
2022/06/03 00:59:38;;;;;;;5.25;4.28;;;;;;;;;;5012827;28;20417;-44
2022/06/03 01:02:22;;;;;;;5.90;4.45;;;;;;;;;;5012346;28;20029;-40
2022/06/03 01:05:03;;;;;;;5.30;4.35;;;;;;;;;;5012596;28;20030;-47
2022/06/03 01:07:44;;;;;;;6.03;4.25;;;;;;;;;;5012834;28;20030;-57
2022/06/03 01:10:19;;;;;;;;;;;;;;;;;;5013211;28;20032;-54
2022/06/03 01:13:12;;;;;;;11.00;4.85;;;;;;;;;;5012638;28;19913;-42
2022/06/03 01:16:08;;;;;;;6.00;4.45;;;;;;;;;;5012525;28;20062;-40
2022/06/03 01:18:50;;;;;;;6.40;4.40;;;;;;;;;;5012701;28;20399;-44
2022/06/03 01:21:24;;;;;;;5.78;4.53;;;;;;;;;;5012387;28;20032;-42
2022/06/03 01:24:21;;;;;;;6.90;4.53;;;;;;;;;;5012608;28;20378;-45
2022/06/03 01:26:55;;;;;;;5.65;4.05;;;;;;;;;;5012595;28;20413;-40
2022/06/03 01:29:37;;;;;;;6.93;4.68;;;;;;;;;;5012315;28;20363;-49
2022/06/03 01:32:20;;;;;;;7.53;5.03;;;;;;;;;;5012081;28;20121;-46
2022/06/03 01:35:14;;;;;;;4.97;4.10;;;;;;;;;;5012261;28;20601;-40
2022/06/03 01:37:57;;;;;;;5.65;4.40;;;;;;;;;;5013798;28;20037;-48
2022/06/03 01:40:48;;;;;;;9.60;4.90;;;;;;;;;;5016280;28;20030;-40
2022/06/03 01:43:25;;;;;;;8.07;5.32;;;;;;;;;;5015977;28;20433;-57
2022/06/03 01:46:18;;;;;;;7.25;4.90;;;;;;;;;;5015924;28;20041;-48
2022/06/03 01:48:46;;;;;;;6.78;5.32;;;;;;;;;;5015795;28;20022;-49
2022/06/03 01:51:21;;;;;;;7.18;4.93;;;;;;;;;;5015687;28;20093;-40
2022/06/03 01:54:23;;;;;;;7.18;4.85;;;;;;;;;;5015909;28;20033;-41
2022/06/03 01:57:02;;;;;;;10.10;4.97;;;;;;;;;;5015807;28;20033;-54
2022/06/03 02:00:03;;;;;;;7.05;5.00;;;;;;;;;;5015779;28;20034;-42
2022/06/03 02:02:47;;;;;;;9.27;5.32;;;;;;;;;;5015822;28;20021;-43
2022/06/03 02:05:33;;;;;;;7.85;5.63;;;;;;;;;;5015862;28;20030;-55
2022/06/03 02:08:11;;;;;;;7.80;4.70;;;;;;;;;;5015898;28;20030;-49
2022/06/03 02:11:00;;;;;;;9.60;4.75;;;;;;;;;;5015585;28;20021;-54
2022/06/03 02:13:44;;;;;;;5.20;4.10;;;;;;;;;;5015504;28;20038;-60
2022/06/03 02:16:40;;;;;;;5.75;4.72;;;;;;;;;;5015463;28;20034;-59
2022/06/03 02:19:11;;;;;;;11.45;4.97;;;;;;;;;;5015369;28;20558;-58
2022/06/03 02:21:52;;;;;;;8.07;4.57;;;;;;;;;;5015314;28;20026;-55
2022/06/03 02:24:32;;;;;;;5.75;4.50;;;;;;;;;;5015230;28;20493;-49
2022/06/03 02:27:18;;;;;;;7.78;4.60;;;;;;;;;;5015261;28;20517;-61
2022/06/03 02:33:04;;;;;;;6.93;4.43;;;;;;;;;;5015163;28;20117;-40
2022/06/03 02:35:54;;;;;;;5.40;4.82;;;;;;;;;;4997418;28;20045;-40
2022/06/03 02:38:22;;;;;;;6.13;4.25;;;;;;;;;;5015136;28;20026;-48
2022/06/03 02:40:56;;;;;;;5.75;4.68;;;;;;;;;;5014981;28;20478;-59
2022/06/03 02:43:59;;;;;;;5.53;4.90;;;;;;;;;;5014870;28;20604;-42
2022/06/03 02:46:48;;;;;;;5.60;4.75;;;;;;;;;;5015153;28;20033;-40
2022/06/03 02:49:53;;;;;;;5.07;4.13;;;;;;;;;;5014855;28;20421;-58
2022/06/03 02:52:43;;;;;;;7.68;3.88;;;;;;;;;;5015102;28;20041;-55
2022/06/03 02:55:35;;;;;;;7.35;4.18;;;;;;;;;;5014796;28;20030;-57
2022/06/03 02:58:06;;;;;;;4.60;4.18;;;;;;;;;;4974166;28;20132;-54
2022/06/03 03:00:31;;;;;;;6.38;4.30;;;;;;;;;;5014529;28;20026;-56
2022/06/03 03:03:44;;;;;;;4.85;3.78;;;;;;;;;;5014488;28;20386;-40
2022/06/03 03:06:46;;;;;;;5.90;4.03;;;;;;;;;;4961008;28;20249;-58
2022/06/03 03:09:40;;;;;;;8.35;3.80;;;;;;;;;;5014638;28;20029;-59
2022/06/03 03:12:39;;;;;;;4.15;3.60;;;;;;;;;;5014305;28;20063;-56
2022/06/03 03:15:26;;;;;;;3.58;3.28;;;;;;;;;;5014573;28;20059;-48
2022/06/03 03:18:16;;;;;;;5.20;3.72;;;;;;;;;;5014323;28;20033;-55
2022/06/03 03:21:06;;;;;;;5.50;3.10;;;;;;;;;;5014560;28;20022;-39
2022/06/03 03:23:44;;;;;;;6.90;3.53;;;;;;;;;;4996390;28;20030;-40
2022/06/03 03:26:43;;;;;;;4.30;3.40;;;;;;;;;;5014102;28;20603;-39
2022/06/03 03:29:21;;;;;;;4.03;3.35;;;;;;;;;;5013978;28;20053;-39
2022/06/03 03:32:28;;;;;;;3.50;3.20;;;;;;;;;;5013663;28;20045;-41
2022/06/03 03:35:08;;;;;;;4.40;3.45;;;;;;;;;;4970010;28;20069;-40
2022/06/03 03:37:34;;;;;;;5.10;3.28;;;;;;;;;;5013980;28;20076;-61
2022/06/03 03:40:30;;;;;;;4.20;3.17;;;;;;;;;;5013732;28;20025;-52
2022/06/03 03:43:07;;;;;;;4.63;3.35;;;;;;;;;;4996202;28;20105;-41
2022/06/03 03:45:41;;;;;;;4.20;3.30;;;;;;;;;;5013747;28;20034;-40
2022/06/03 03:48:36;;;;;;;3.63;3.33;;;;;;;;;;5013917;28;20033;-59
2022/06/03 03:51:16;;;;;;;3.60;3.30;;;;;;;;;;5013735;28;20018;-59
2022/06/03 03:54:31;;;;;;;3.45;3.15;;;;;;;;;;5013602;28;20041;-42
2022/06/03 03:57:18;;;;;;;3.53;2.95;;;;;;;;;;5013718;28;20037;-51
2022/06/03 03:59:49;;;;;;;6.53;3.20;;;;;;;;;;5012747;28;20037;-44
2022/06/03 04:02:30;;;;;;;3.40;3.10;;;;;;;;;;5013425;28;20541;-51
2022/06/03 04:04:55;;;;;;;;;;;;;;;;;;5013723;28;20030;-45
2022/06/03 04:08:00;;;;;;;3.40;3.10;;;;;;;;;;5013714;28;19914;-47
2022/06/03 04:10:44;;;;;;;4.15;3.30;;;;;;;;;;5013508;28;20608;-46
2022/06/03 04:13:31;;;;;;;3.22;2.92;;;;;;;;;;5013665;28;20532;-41
2022/06/03 04:16:40;;;;;;;3.28;2.97;;;;;;;;;;5013460;28;20033;-47
2022/06/03 04:19:24;;;;;;;4.72;2.72;;;;;;;;;;4952579;29;20047;-46
2022/06/03 04:22:34;;;;;;;3.25;2.95;;;;;;;;;;5008114;28;20033;-52
2022/06/03 04:25:20;;;;;;;2.33;2.13;;;;;;;;;;4976647;28;20045;-40
2022/06/03 04:28:05;;;;;;;3.40;2.42;;;;;;;;;;5013109;28;20026;-44
2022/06/03 04:30:49;;;;;;;2.40;2.20;;;;;;;;;;4995165;28;20030;-41
2022/06/03 04:33:50;;;;;;;3.10;2.75;;;;;;;;;;5013159;28;20026;-53
2022/06/03 04:37:03;;;;;;;3.15;2.70;;;;;;;;;;5013191;28;20029;-54
2022/06/03 04:39:50;;;;;;;2.80;2.22;;;;;;;;;;5012869;28;20022;-44
2022/06/03 04:42:53;;;;;;;2.10;1.90;;;;;;;;;;5013095;28;20424;-54
2022/06/03 04:45:54;;;;;;;2.35;1.95;;;;;;;;;;5013097;28;20140;-43
2022/06/03 04:48:47;;;;;;;2.35;2.13;;;;;;;;;;5012963;28;20026;-45
2022/06/03 04:51:51;;;;;;;1.80;1.58;;;;;;;;;;5012830;28;20034;-45
2022/06/03 04:54:38;;;;;;;1.52;1.42;;;;;;;;;;5012580;28;20026;-44
2022/06/03 04:57:19;;;;;;;1.58;1.48;;;;;;;;;;5012474;28;20033;-47
2022/06/03 05:00:06;;;;;;;2.50;1.40;;;;;;;;;;5012474;28;20073;-40
2022/06/03 05:02:31;;;;;;;4.28;2.22;;;;;;;;;;5012786;28;20104;-41
2022/06/03 05:05:06;;;;;;;5.28;2.17;;;;;;;;;;5012405;28;20462;-41
2022/06/03 05:07:56;;;;;;;1.70;1.60;;;;;;;;;;5012628;28;20030;-40
2022/06/03 05:10:53;;;;;;;2.25;2.05;;;;;;;;;;5012267;28;20080;-44
2022/06/03 05:13:49;;;;;;;3.33;2.65;;;;;;;;;;5016403;28;20041;-42
2022/06/03 05:16:42;;;;;;;1.92;1.80;;;;;;;;;;5016767;28;20049;-41
2022/06/03 05:19:13;;;;;;;3.85;1.80;;;;;;;;;;5015715;28;20038;-41
2022/06/03 05:22:02;;;;;;;1.77;1.67;;;;;;;;;;5016494;28;20018;-40
2022/06/03 05:24:40;;;;;;;1.40;1.30;;;;;;;;;;5016443;28;20042;-41
2022/06/03 05:27:26;;;;;;;8.93;2.60;;;;;;;;;;5016228;28;20022;-40
2022/06/03 05:29:54;;;;;;;1.67;1.58;;;;;;;;;;5016004;28;20032;-40
2022/06/03 05:32:20;;;;;;;4.38;2.10;;;;;;;;;;5015823;28;20058;-41
2022/06/03 05:35:07;;;;;;;1.85;1.60;;;;;;;;;;5016081;28;20568;-44
2022/06/03 05:38:07;;;;;;;1.60;1.50;;;;;;;;;;5014838;28;20045;-45
2022/06/03 05:40:55;;;;;;;3.92;1.80;;;;;;;;;;5014543;28;20084;-41
2022/06/03 05:43:21;;;;;;;1.98;1.60;;;;;;;;;;4976130;28;20037;-45
2022/06/03 05:46:23;;;;;;;1.65;1.55;;;;;;;;;;5014976;28;20381;-42
2022/06/03 05:49:07;;;;;;;2.10;1.95;;;;;;;;;;5015015;28;20030;-41
2022/06/03 05:51:54;;;;;;;2.58;1.63;;;;;;;;;;5015466;28;20101;-42
2022/06/03 05:54:22;;;;;;;3.13;1.65;;;;;;;;;;5015759;28;20030;-42
2022/06/03 05:56:59;;;;;;;2.13;2.00;;;;;;;;;;5015921;28;20076;-42
2022/06/03 05:59:39;;;;;;;3.30;1.80;;;;;;;;;;5015711;28;20526;-43
2022/06/03 06:02:13;;;;;;;1.65;1.55;;;;;;;;;;5015633;28;20117;-42
2022/06/03 06:05:12;;;;;;;2.33;2.00;;;;;;;;;;5015641;28;20466;-43
2022/06/03 06:07:50;;;;;;;2.25;1.40;;;;;;;;;;4997998;28;20033;-45
2022/06/03 06:10:49;;;;;;;1.98;1.77;;;;;;;;;;5015441;28;20512;-44
2022/06/03 06:13:38;;;;;;;2.22;2.03;;;;;;;;;;5015422;28;20041;-43
2022/06/03 06:16:32;;;;;;;2.58;2.38;;;;;;;;;;5015252;28;20498;-43
2022/06/03 06:19:07;;;;;;;2.65;2.20;;;;;;;;;;5004741;28;20393;-43
2022/06/03 06:21:44;;;;;;;2.03;1.80;;;;;;;;;;5015281;28;20022;-43
2022/06/03 06:24:22;;;;;;;8.40;1.98;;;;;;;;;;5014628;28;20083;-45
2022/06/03 06:27:15;;;;;;;2.22;1.55;;;;;;;;;;5015210;28;20115;-44
2022/06/03 06:30:18;;;;;;;1.80;1.70;;;;;;;;;;4997535;28;20083;-42
2022/06/03 06:32:43;;;;;;;1.70;1.60;;;;;;;;;;5014827;28;20081;-55
2022/06/03 06:35:31;;;;;;;4.75;1.85;;;;;;;;;;5015138;28;20062;-44
2022/06/03 06:38:27;;;;;;;7.50;1.48;;;;;;;;;;5014965;28;20026;-43
2022/06/03 06:41:07;;;;;;;2.00;1.85;;;;;;;;;;5014899;28;20060;-43
2022/06/03 06:43:50;;;;;;;10.02;2.42;;;;;;;;;;5014913;28;20038;-46
2022/06/03 06:46:25;;;;;;;2.63;1.88;;;;;;;;;;5014895;28;20490;-48
2022/06/03 06:49:20;;;;;;;2.38;2.17;;;;;;;;;;5014713;28;20114;-53
2022/06/03 06:52:03;;;;;;;2.08;1.83;;;;;;;;;;5014675;28;20105;-46
2022/06/03 06:54:51;;;;;;;2.70;2.38;;;;;;;;;;4997359;28;20061;-46
2022/06/03 06:57:35;;;;;;;4.72;2.40;;;;;;;;;;5014861;28;20033;-43
2022/06/03 07:00:04;;;;;;;4.20;2.28;;;;;;;;;;5014574;28;20061;-43
2022/06/03 07:02:49;;;;;;;3.92;1.95;;;;;;;;;;5014795;28;20115;-47
2022/06/03 07:05:37;;;;;;;1.80;1.58;;;;;;;;;;5014446;28;20034;-54
2022/06/03 07:08:23;;;;;;;1.83;1.73;;;;;;;;;;5014668;28;20053;-53
2022/06/03 07:10:55;;;;;;;2.47;2.28;;;;;;;;;;5014598;28;20033;-42
2022/06/03 07:13:34;;;;;;;3.35;2.45;;;;;;;;;;5014217;28;20100;-53
2022/06/03 07:19:47;;;;;;;3.63;2.60;;;;;;;;;;5014513;28;20052;-46
2022/06/03 07:22:28;;;;;;;2.72;2.50;;;;;;;;;;5014364;28;20084;-57
2022/06/03 07:24:56;;;;;;;2.60;2.15;;;;;;;;;;5012251;28;20040;-59
2022/06/03 07:27:43;;;;;;;5.55;2.35;;;;;;;;;;5012127;28;20029;-51
2022/06/03 07:30:36;;;;;;;1.45;1.35;;;;;;;;;;5012429;28;20369;-58
2022/06/03 07:33:14;;;;;;;4.85;1.85;;;;;;;;;;5013020;28;20129;-57
2022/06/03 07:35:55;;;;;;;2.53;2.33;;;;;;;;;;5013182;28;20388;-48
2022/06/03 07:38:26;;;;;;;2.55;2.35;;;;;;;;;;5013998;28;20022;-51
2022/06/03 07:41:19;;;;;;;2.50;2.30;;;;;;;;;;5014036;28;20366;-53
2022/06/03 07:43:49;;;;;;;2.80;2.30;;;;;;;;;;5012318;28;20363;-46
2022/06/03 07:46:28;;;;;;;1.88;1.77;;;;;;;;;;5014069;28;20022;-47
2022/06/03 07:48:54;;;;;;;2.55;2.30;;;;;;;;;;5013883;28;20034;-57
2022/06/03 07:51:31;;;;;;;2.47;2.13;;;;;;;;;;5008959;28;20600;-55
2022/06/03 07:54:06;;;;;;;2.88;2.10;;;;;;;;;;5012191;28;20401;-54
2022/06/03 07:56:34;;;;;;;2.70;2.50;;;;;;;;;;5012076;28;20029;-48
2022/06/03 07:59:04;;;;;;;2.63;2.38;;;;;;;;;;5011971;28;20109;-52
2022/06/03 08:01:35;;;;;;;4.50;2.30;;;;;;;;;;5011900;28;20478;-51
2022/06/03 08:04:02;;;;;;;4.68;3.28;;;;;;;;;;5011858;28;20034;-50
2022/06/03 08:06:30;;;;;;;2.50;2.30;;;;;;;;;;5011787;28;20497;-53
2022/06/03 08:11:43;;;;;;;2.53;2.10;;;;;;;;;;5011705;28;20048;-52
2022/06/03 08:14:09;;;;;;;2.83;2.40;;;;;;;;;;5011827;28;20679;-49
2022/06/03 08:16:38;;;;;;;2.15;1.95;;;;;;;;;;5011836;28;20049;-52
2022/06/03 08:19:17;;;;;;;4.50;2.65;;;;;;;;;;5011845;28;20026;-47
2022/06/03 08:21:52;;;;;;;2.13;1.93;;;;;;;;;;5011581;28;20394;-52
2022/06/03 08:24:33;;;;;;;2.17;2.00;;;;;;;;;;5010592;28;20045;-49
2022/06/03 08:27:12;;;;;;;3.17;2.25;;;;;;;;;;5011642;28;20061;-49
2022/06/03 08:29:43;;;;;;;2.45;2.22;;;;;;;;;;5011744;28;20034;-51
2022/06/03 08:32:18;;;;;;;3.28;2.30;;;;;;;;;;5011092;28;20132;-48
2022/06/03 08:34:51;;;;;;;2.85;2.45;;;;;;;;;;4993697;28;20017;-47
2022/06/03 08:37:25;;;;;;;2.00;1.83;;;;;;;;;;5011249;28;20045;-51
2022/06/03 08:39:53;;;;;;;2.40;2.20;;;;;;;;;;5011068;28;20029;-49
2022/06/03 08:42:31;;;;;;;4.43;2.60;;;;;;;;;;5011472;28;20025;-49
2022/06/03 08:45:31;;;;;;;2.03;1.73;;;;;;;;;;5011256;28;20433;-50
2022/06/03 08:48:00;;;;;;;1.90;1.60;;;;;;;;;;5010940;28;20026;-52
2022/06/03 08:50:38;;;;;;;2.92;2.13;;;;;;;;;;5011482;28;20425;-50
2022/06/03 08:53:03;;;;;;;3.20;2.20;;;;;;;;;;5010939;28;20042;-49
2022/06/03 08:55:49;;;;;;;1.95;1.77;;;;;;;;;;5011292;28;20034;-48
2022/06/03 08:58:31;;;;;;;4.25;2.40;;;;;;;;;;5010944;28;20022;-51
2022/06/03 09:01:11;;;;;;;2.25;2.05;;;;;;;;;;5011058;28;20025;-49
2022/06/03 09:04:03;;;;;;;3.92;1.95;;;;;;;;;;5010955;28;20022;-50
2022/06/03 09:06:36;;;;;;;2.22;2.03;;;;;;;;;;4980421;28;20565;-51
2022/06/03 09:09:12;;;;;;;3.83;2.10;;;;;;;;;;5010830;28;20083;-49
2022/06/03 09:11:56;;;;;;;4.00;1.90;;;;;;;;;;5010881;28;20026;-50
2022/06/03 09:14:24;;;;;;;4.68;2.00;;;;;;;;;;5010718;28;20030;-51
2022/06/03 09:16:56;;;;;;;1.90;1.80;;;;;;;;;;4992802;28;20121;-49
2022/06/03 09:19:27;;;;;;;1.80;1.70;;;;;;;;;;5010958;28;20432;-52
2022/06/03 09:21:56;;;;;;;2.20;2.10;;;;;;;;;;5010737;28;20049;-48
2022/06/03 09:24:29;;;;;;;2.13;1.93;;;;;;;;;;5010990;28;20109;-50
2022/06/03 09:26:58;;;;;;;5.25;2.17;;;;;;;;;;5010938;28;20025;-50
2022/06/03 09:29:24;;;;;;;2.10;1.80;;;;;;;;;;5010692;28;20485;-48
2022/06/03 09:31:54;;;;;;;2.92;2.00;;;;;;;;;;5010176;28;20069;-50
2022/06/03 09:34:31;;;;;;;2.47;2.10;;;;;;;;;;4992409;28;20409;-47
2022/06/03 09:36:56;;;;;;;4.32;2.35;;;;;;;;;;5010680;28;20470;-50
2022/06/03 09:39:23;;;;;;;2.30;2.10;;;;;;;;;;5009940;28;20057;-50
2022/06/03 09:41:55;;;;;;;5.03;2.28;;;;;;;;;;5010855;28;20022;-54
2022/06/03 09:44:23;;;;;;;2.13;1.92;;;;;;;;;;5010944;28;20041;-47
2022/06/03 09:46:57;;;;;;;3.60;1.90;;;;;;;;;;5009878;28;20030;-50
2022/06/03 09:49:24;;;;;;;1.45;1.35;;;;;;;;;;5010915;28;20032;-48
2022/06/03 09:51:56;;;;;;;3.65;2.15;;;;;;;;;;5010482;28;20056;-52
2022/06/03 09:54:52;;;;;;;2.00;1.88;;;;;;;;;;5010513;28;20065;-48
2022/06/03 09:57:27;;;;;;;2.75;2.10;;;;;;;;;;4994124;28;20409;-50
2022/06/03 10:00:17;;;;;;;1.27;1.23;;;;;;;;;;5013634;28;20023;-47
2022/06/03 10:02:44;;;;;;;2.10;1.77;;;;;;;;;;5014143;28;20061;-47
2022/06/03 10:05:11;;;;;;;1.90;1.80;;;;;;;;;;5013890;28;20030;-53
2022/06/03 10:07:37;;;;;;;1.90;1.70;;;;;;;;;;5013989;28;20034;-47
2022/06/03 10:12:55;;;;;;;1.70;1.50;;;;;;;;;;5014008;28;20096;-50
2022/06/03 10:15:38;;;;;;;2.63;1.40;;;;;;;;;;5014000;28;20030;-47
2022/06/03 10:18:24;;;;;;;1.90;1.80;;;;;;;;;;5014114;28;20034;-48
2022/06/03 10:20:55;;;;;;;2.30;2.10;;;;;;;;;;5013642;28;20026;-51
2022/06/03 10:23:22;;;;;;;1.85;1.73;;;;;;;;;;5014009;28;20057;-47
2022/06/03 10:25:49;;;;;;;4.90;1.45;;;;;;;;;;5013470;28;20041;-47
2022/06/03 10:28:15;;;;;;;2.13;1.40;;;;;;;;;;5013875;28;20040;-48
2022/06/03 10:30:42;;;;;;;2.35;1.90;;;;;;;;;;5013378;28;20021;-50
2022/06/03 10:33:20;;;;;;;2.05;1.70;;;;;;;;;;5013491;28;20065;-46
2022/06/03 10:35:47;;;;;;;2.00;1.58;;;;;;;;;;5013307;28;20409;-52
2022/06/03 10:38:17;;;;;;;1.70;1.60;;;;;;;;;;5013626;28;20064;-46
2022/06/03 10:40:46;;;;;;;;;;;;;;;;;;5013938;28;20034;-47
2022/06/03 10:43:20;;;;;;;2.90;1.95;;;;;;;;;;5013483;28;19914;-46
2022/06/03 10:45:45;;;;;;;5.95;1.85;;;;;;;;;;5013283;28;20037;-48
2022/06/03 10:48:28;;;;;;;1.77;1.65;;;;;;;;;;5013008;28;20076;-48
2022/06/03 10:51:14;;;;;;;2.25;1.70;;;;;;;;;;5013126;28;20018;-47
2022/06/03 11:02:01;;;;;;;1.83;1.52;;;;;;;;;;5013244;28;19924;-51
2022/06/03 11:04:39;;;;;;;1.30;1.17;;;;;;;;;;5013110;28;20029;-51
2022/06/03 11:07:32;;;;;;;2.30;1.50;;;;;;;;;;5012798;28;20432;-50
2022/06/03 11:10:07;;;;;;;1.75;1.50;;;;;;;;;;5002547;28;20033;-52
2022/06/03 11:12:33;;;;;;;2.65;1.58;;;;;;;;;;5013284;28;20385;-51
2022/06/03 11:14:58;;;;;;;4.05;1.40;;;;;;;;;;5012889;28;20026;-51
2022/06/03 11:17:37;;;;;;;1.38;1.27;;;;;;;;;;5012575;28;20522;-51
2022/06/03 11:20:19;;;;;;;3.15;2.00;;;;;;;;;;5012463;28;20030;-51
2022/06/03 11:22:45;;;;;;;1.40;1.30;;;;;;;;;;5012853;28;20741;-49
2022/06/03 11:25:13;;;;;;;0.95;0.93;;;;;;;;;;5012239;28;20116;-49
2022/06/03 11:27:47;;;;;;;1.00;1.00;;;;;;;;;;5012661;28;20037;-50
2022/06/03 11:30:30;;;;;;;1.30;1.17;;;;;;;;;;5012265;28;20026;-50
2022/06/03 11:33:02;;;;;;;2.15;1.88;;;;;;;;;;5012278;28;20394;-52
2022/06/03 11:35:38;;;;;;;2.10;1.92;;;;;;;;;;5012433;28;20053;-52
2022/06/03 11:38:06;;;;;;;6.68;1.77;;;;;;;;;;5012453;28;20025;-48
2022/06/03 11:40:36;;;;;;;2.38;1.52;;;;;;;;;;5012035;28;20030;-49
2022/06/03 11:43:15;;;;;;;3.97;1.67;;;;;;;;;;5012181;28;20108;-48
2022/06/03 11:45:52;;;;;;;1.67;1.58;;;;;;;;;;5011980;28;20029;-50
2022/06/03 11:48:30;;;;;;;4.60;1.60;;;;;;;;;;4994510;28;20034;-48
2022/06/03 11:50:58;;;;;;;1.90;1.40;;;;;;;;;;5012012;28;20033;-46
2022/06/03 11:53:26;;;;;;;1.73;1.50;;;;;;;;;;5011770;28;20037;-49
2022/06/03 11:59:42;;;;;;;4.40;1.70;;;;;;;;;;5012069;28;20356;-49
2022/06/03 12:02:14;;;;;;;2.25;1.50;;;;;;;;;;5011732;28;20114;-49
2022/06/03 12:04:52;;;;;;;2.63;1.40;;;;;;;;;;5011803;28;20338;-48
2022/06/03 12:07:33;;;;;;;1.92;1.38;;;;;;;;;;5011839;28;20030;-51
2022/06/03 12:10:11;;;;;;;2.10;1.52;;;;;;;;;;5011938;28;20060;-51
2022/06/03 12:15:35;;;;;;;1.85;1.70;;;;;;;;;;5011851;28;20033;-49
2022/06/03 12:18:06;;;;;;;1.48;1.38;;;;;;;;;;5011775;28;20030;-49
2022/06/03 12:20:31;;;;;;;1.20;1.15;;;;;;;;;;5010990;28;20036;-49
2022/06/03 12:23:17;;;;;;;2.50;1.45;;;;;;;;;;5011354;28;20034;-50
2022/06/03 12:25:48;;;;;;;1.40;1.30;;;;;;;;;;4970947;28;20538;-49
2022/06/03 12:28:26;;;;;;;1.92;1.42;;;;;;;;;;5011621;28;20034;-46
2022/06/03 12:30:55;;;;;;;2.83;1.63;;;;;;;;;;5011302;28;20042;-51
2022/06/03 12:33:21;;;;;;;;;;;;;;;;;;5011983;28;20044;-49
2022/06/03 12:35:54;;;;;;;3.70;3.05;;;;;;;;;;5011134;28;20000;-47
2022/06/03 12:38:19;;;;;;;19.95;8.35;;;;;;;;;;5010872;28;20018;-51
2022/06/03 12:40:53;;;;;;;1.75;1.38;;;;;;;;;;5011528;28;20386;-48
2022/06/03 12:43:46;;;;;;;1.58;1.48;;;;;;;;;;5011576;28;20030;-47
2022/06/03 12:46:33;;;;;;;2.28;1.13;;;;;;;;;;5013013;28;20025;-46
2022/06/03 12:48:58;;;;;;;1.67;1.58;;;;;;;;;;5012476;28;20026;-46
2022/06/03 12:51:29;;;;;;;2.13;1.58;;;;;;;;;;5011000;28;20390;-50
2022/06/03 12:54:20;;;;;;;1.42;1.30;;;;;;;;;;5011385;28;20034;-46
2022/06/03 12:56:50;;;;;;;1.70;1.38;;;;;;;;;;5010594;28;20045;-52
2022/06/03 12:59:48;;;;;;;1.70;1.48;;;;;;;;;;5011429;28;20156;-46
2022/06/03 13:02:18;;;;;;;1.58;1.48;;;;;;;;;;5011014;28;20117;-51
2022/06/03 13:05:23;;;;;;;3.20;1.38;;;;;;;;;;5011162;28;20030;-50
2022/06/03 13:08:19;;;;;;;1.33;1.23;;;;;;;;;;4982991;28;20428;-49
2022/06/03 13:11:04;;;;;;;0.80;0.80;;;;;;;;;;4995305;28;20096;-48
2022/06/03 13:13:29;;;;;;;1.60;1.50;;;;;;;;;;5010919;28;20034;-50
2022/06/03 13:16:04;;;;;;;1.05;1.05;;;;;;;;;;5011017;28;20132;-49
2022/06/03 13:18:35;;;;;;;1.02;1.02;;;;;;;;;;5010856;28;20736;-47
2022/06/03 13:21:00;;;;;;;1.50;1.40;;;;;;;;;;5011143;28;20119;-47
2022/06/03 13:23:29;;;;;;;3.85;1.20;;;;;;;;;;5010753;28;20490;-47
2022/06/03 13:26:15;;;;;;;1.52;1.17;;;;;;;;;;5010785;28;20030;-48
2022/06/03 13:28:43;;;;;;;1.27;1.20;;;;;;;;;;4993028;28;20030;-46
2022/06/03 13:31:10;;;;;;;2.78;1.23;;;;;;;;;;5010650;28;20054;-51
2022/06/03 13:34:08;;;;;;;3.28;1.17;;;;;;;;;;5012048;28;20560;-47
2022/06/03 13:36:36;;;;;;;1.15;1.15;;;;;;;;;;5014581;28;20091;-51
2022/06/03 13:39:04;;;;;;;1.40;1.30;;;;;;;;;;5014743;28;20026;-48
2022/06/03 13:44:44;;;;;;;1.35;1.20;;;;;;;;;;5014531;28;20091;-47
2022/06/03 13:47:22;;;;;;;1.30;1.20;;;;;;;;;;5014645;28;20710;-46
2022/06/03 13:50:14;;;;;;;1.30;1.20;;;;;;;;;;5014641;28;20072;-49
2022/06/03 13:52:52;;;;;;;1.33;1.20;;;;;;;;;;5013942;28;20466;-46
2022/06/03 13:55:33;;;;;;;4.15;1.30;;;;;;;;;;5014204;28;20065;-47
2022/06/03 13:58:04;;;;;;;2.78;1.58;;;;;;;;;;5014154;28;20036;-45
2022/06/03 14:00:39;;;;;;;4.78;1.50;;;;;;;;;;5014397;28;20041;-46
2022/06/03 14:03:10;;;;;;;2.55;1.30;;;;;;;;;;5014301;28;20434;-49
2022/06/03 14:05:41;;;;;;;1.58;1.48;;;;;;;;;;5014184;28;20113;-49
2022/06/03 14:08:20;;;;;;;2.28;1.40;;;;;;;;;;5013847;28;20096;-48
2022/06/03 14:11:00;;;;;;;;;;;;;;;;;;5014564;28;20036;-45
2022/06/03 14:13:54;;;;;;;1.38;1.30;;;;;;;;;;4996137;28;19925;-49
2022/06/03 14:16:23;;;;;;;2.25;1.50;;;;;;;;;;5013879;28;20026;-48
2022/06/03 14:19:10;;;;;;;1.98;1.40;;;;;;;;;;5013715;28;20029;-47
2022/06/03 14:21:43;;;;;;;1.40;1.30;;;;;;;;;;5014004;28;20362;-49
2022/06/03 14:24:32;;;;;;;1.77;1.58;;;;;;;;;;5013836;28;20030;-46
2022/06/03 14:27:35;;;;;;;4.03;1.30;;;;;;;;;;4996056;28;20040;-46
2022/06/03 14:30:11;;;;;;;4.00;1.55;;;;;;;;;;5013459;28;20122;-48
2022/06/03 14:32:43;;;;;;;1.88;1.75;;;;;;;;;;5013384;28;20049;-50
2022/06/03 14:35:15;;;;;;;2.05;1.70;;;;;;;;;;5013663;28;20385;-50
2022/06/03 14:37:49;;;;;;;1.55;1.45;;;;;;;;;;5013518;28;20496;-48
2022/06/03 14:40:23;;;;;;;1.50;1.40;;;;;;;;;;5013542;28;20040;-48
2022/06/03 14:42:50;;;;;;;1.85;1.75;;;;;;;;;;5013631;28;20025;-46
2022/06/03 14:45:16;;;;;;;1.70;1.60;;;;;;;;;;5012793;28;20120;-49
2022/06/03 14:48:04;;;;;;;3.05;1.58;;;;;;;;;;5013289;28;20105;-45
2022/06/03 14:50:33;;;;;;;4.93;1.45;;;;;;;;;;5013416;28;20396;-50
2022/06/03 14:53:16;;;;;;;1.60;1.50;;;;;;;;;;5013466;28;20164;-49
2022/06/03 14:55:45;;;;;;;1.73;1.63;;;;;;;;;;5013251;28;20065;-45
2022/06/03 14:58:34;;;;;;;1.98;1.80;;;;;;;;;;5013007;28;20505;-45
2022/06/03 15:01:06;;;;;;;2.15;1.70;;;;;;;;;;4995003;28;20259;-48
2022/06/03 15:03:53;;;;;;;1.60;1.50;;;;;;;;;;5013004;28;20037;-51
2022/06/03 15:06:33;;;;;;;1.88;1.70;;;;;;;;;;5013157;28;20053;-45
2022/06/03 15:09:30;;;;;;;1.83;1.63;;;;;;;;;;5012805;28;20026;-46
2022/06/03 15:12:02;;;;;;;3.00;1.70;;;;;;;;;;5002019;28;20037;-46
2022/06/03 15:14:28;;;;;;;1.65;1.50;;;;;;;;;;5012977;28;20030;-46
2022/06/03 15:17:00;;;;;;;2.08;1.70;;;;;;;;;;5012748;28;20034;-46
2022/06/03 15:19:41;;;;;;;2.35;1.70;;;;;;;;;;5012831;28;20508;-46
2022/06/03 15:22:21;;;;;;;1.85;1.75;;;;;;;;;;5012637;28;20080;-49
2022/06/03 15:24:54;;;;;;;4.30;1.80;;;;;;;;;;4994975;28;20037;-45
2022/06/03 15:27:43;;;;;;;1.88;1.70;;;;;;;;;;5012631;28;20034;-49
2022/06/03 15:30:18;;;;;;;2.00;1.60;;;;;;;;;;5012783;28;20030;-49
2022/06/03 15:32:45;;;;;;;2.22;1.95;;;;;;;;;;5012072;28;20064;-47
2022/06/03 15:35:20;;;;;;;1.83;1.55;;;;;;;;;;5012383;28;20057;-46
2022/06/03 15:37:45;;;;;;;1.95;1.85;;;;;;;;;;5012563;28;20482;-45
2022/06/03 15:40:39;;;;;;;3.67;1.80;;;;;;;;;;5012498;28;20034;-47
2022/06/03 15:43:09;;;;;;;2.17;1.65;;;;;;;;;;5011751;28;20066;-49
2022/06/03 15:45:34;;;;;;;4.38;1.60;;;;;;;;;;5012441;28;20034;-47
2022/06/03 15:48:12;;;;;;;3.17;1.70;;;;;;;;;;5012399;28;20664;-45
2022/06/03 15:50:39;;;;;;;1.80;1.70;;;;;;;;;;5012434;28;20108;-48
2022/06/03 15:53:05;;;;;;;1.42;1.33;;;;;;;;;;5011965;28;20141;-47
2022/06/03 15:55:43;;;;;;;1.85;1.70;;;;;;;;;;5011309;28;20105;-48
2022/06/03 15:58:39;;;;;;;2.40;1.90;;;;;;;;;;5011991;28;20026;-50
2022/06/03 16:01:31;;;;;;;3.83;1.45;;;;;;;;;;4983607;28;20426;-45
2022/06/03 16:04:31;;;;;;;5.10;2.15;;;;;;;;;;5003542;28;20627;-46
2022/06/03 16:07:15;;;;;;;6.18;1.20;;;;;;;;;;5012127;28;20084;-48
2022/06/03 16:09:58;;;;;;;1.90;1.63;;;;;;;;;;5012006;28;20026;-48
2022/06/03 16:12:36;;;;;;;2.20;1.45;;;;;;;;;;5011717;28;20026;-45
2022/06/03 16:15:19;;;;;;;1.50;1.40;;;;;;;;;;5011797;28;20065;-45
2022/06/03 16:18:01;;;;;;;1.25;1.15;;;;;;;;;;5011709;28;20044;-45
2022/06/03 16:20:47;;;;;;;1.42;1.33;;;;;;;;;;5011746;28;20057;-47
2022/06/03 16:23:19;;;;;;;1.40;1.30;;;;;;;;;;5011424;28;20116;-46
2022/06/03 16:26:04;;;;;;;4.00;1.25;;;;;;;;;;5011705;28;20018;-45
2022/06/03 16:29:00;;;;;;;1.60;1.40;;;;;;;;;;5011825;28;20030;-45
2022/06/03 16:31:35;;;;;;;1.60;1.50;;;;;;;;;;5011326;28;20053;-45